Stanfield, Oregon
Current Conditions -  °F | °C
As of 9:53 AM on Thursday 30 Oct 2014 (Local Time) from KHRI Reporting Station
Overcast Overcast  
Wind Chill: 53°   Ceiling: 9000
Heat Index: 53°   Visibility: 10mi
Dew Point: 49°   Wind: 9mph
Humidity: 86%   Direction: 60°ENE
Pressure: 30.02"   Gusts: NA
Location:  45.78°N, 119.22°W
Report Text: KHRI 301653Z AUTO 06008KT 10SM OVC090 12/09 A3002 RMK AO2 SLP165 T01170094
Loading
Personal Weather Stations






























Interactive Weather Map
Tropical Storm Tracking
New forecast layout! Learn more

10-Day Weather Forecast

Advertisements
Track Severe Weather on mobile